createdAt,value
2023-05-17T07:07:39.310Z,11.688
2023-05-17T07:09:38.940Z,11.625
2023-05-17T07:11:38.935Z,12.562
2023-05-17T07:13:39.819Z,15.813
2023-05-17T07:15:39.830Z,17.312
2023-05-17T07:17:40.449Z,17.5
2023-05-17T07:19:40.308Z,17.5
2023-05-17T07:24:14.924Z,17.437
2023-05-17T07:26:14.081Z,17.437
2023-05-17T07:29:12.334Z,17.437
2023-05-17T07:31:12.340Z,17.375
2023-05-17T07:33:12.518Z,17.437
2023-05-17T07:35:12.329Z,17.375
2023-05-17T07:37:12.389Z,17.437
2023-05-17T07:39:12.344Z,17.437
2023-05-17T07:41:12.838Z,17.437
2023-05-17T07:43:12.395Z,17.437
2023-05-17T07:45:12.366Z,17.437
2023-05-17T07:47:12.673Z,17.375
2023-05-17T07:49:12.908Z,17.437
2023-05-17T07:52:31.139Z,15.625
2023-05-17T07:54:30.981Z,17.875
2023-05-17T07:56:34.060Z,17.625
2023-05-17T07:58:31.101Z,17.687
2023-05-17T08:00:30.952Z,17.687
2023-05-17T08:02:31.152Z,17.75
2023-05-17T08:04:31.273Z,17.75
2023-05-17T08:06:31.032Z,17.75
2023-05-17T08:08:30.944Z,17.687
2023-05-17T08:10:30.954Z,17.687
2023-05-17T08:12:31.268Z,17.75
2023-05-17T08:14:30.984Z,17.687
2023-05-17T08:16:30.946Z,17.812
2023-05-17T08:18:31.469Z,17.812
2023-05-17T08:20:30.992Z,17.812
2023-05-17T08:22:30.953Z,17.812
2023-05-17T08:24:30.976Z,17.812
2023-05-17T08:26:31.151Z,17.812
2023-05-17T08:28:31.169Z,17.875
2023-05-17T08:30:31.438Z,17.937
2023-05-17T08:32:31.154Z,17.937
2023-05-17T08:34:30.974Z,17.875
2023-05-17T08:36:30.966Z,17.937
2023-05-17T08:38:30.992Z,17.875
2023-05-17T08:40:32.221Z,17.937
2023-05-17T08:42:31.470Z,18
2023-05-17T08:44:31.717Z,18
2023-05-17T08:46:30.949Z,17.937
2023-05-17T08:48:31.662Z,17.937
2023-05-17T08:50:31.898Z,18
2023-05-17T08:54:33.591Z,18.062
2023-05-17T08:56:36.619Z,18.125
2023-05-17T08:58:57.803Z,18.062
2023-05-17T09:00:33.807Z,18.062
2023-05-17T09:02:33.925Z,18.125
2023-05-17T09:04:33.924Z,18.187
2023-05-17T09:06:33.595Z,18.125
2023-05-17T09:08:33.588Z,18.125
2023-05-17T09:10:33.607Z,18.125
2023-05-17T09:12:33.586Z,18.062
2023-05-17T09:14:33.609Z,18.187
2023-05-17T09:16:34.052Z,18.187
2023-05-17T09:18:34.322Z,18.25
2023-05-17T09:20:33.604Z,18.187
2023-05-17T09:22:33.562Z,18.25
2023-05-17T09:24:33.595Z,18.25
2023-05-17T09:27:15.090Z,18.25
2023-05-17T09:29:15.482Z,18.25
2023-05-17T09:31:15.089Z,18.312
2023-05-17T09:33:19.428Z,18.312
2023-05-17T09:35:15.111Z,18.375
2023-05-17T09:37:15.156Z,18.312
2023-05-17T09:39:15.606Z,18.312
2023-05-17T09:41:15.106Z,18.375
2023-05-17T09:43:15.117Z,18.437
2023-05-17T09:45:15.105Z,18.375
2023-05-17T09:47:15.075Z,18.437
2023-05-17T09:49:15.381Z,18.437
2023-05-17T09:51:15.060Z,18.375
2023-05-17T09:53:15.089Z,18.375
2023-05-17T09:55:15.120Z,18.375
2023-05-17T10:05:13.370Z,18.5
2023-05-17T10:13:12.921Z,18.562
2023-05-17T10:15:13.182Z,18.562
2023-05-17T10:17:13.021Z,18.625
2023-05-17T10:19:13.438Z,18.562
2023-05-17T10:21:13.086Z,18.5
2023-05-17T10:23:12.954Z,18.625
2023-05-17T10:26:29.730Z,18.625
2023-05-17T10:28:29.781Z,18.687
2023-05-17T10:30:29.807Z,18.687
2023-05-17T10:32:29.994Z,18.687
2023-05-17T10:34:30.808Z,19
2023-05-17T10:36:31.361Z,19.562
2023-05-17T10:38:43.482Z,19.875
2023-05-17T10:40:32.346Z,20.062
2023-05-17T10:42:32.476Z,20.125
2023-05-17T10:44:32.557Z,19.875
2023-05-17T10:46:32.298Z,19.875
2023-05-17T10:48:32.637Z,19.937
2023-05-17T10:50:32.294Z,20.062
2023-05-17T10:52:32.645Z,20.062
2023-05-17T10:54:32.420Z,20.187
2023-05-17T10:56:32.374Z,20.25
2023-05-17T10:58:32.322Z,20.187
2023-05-17T11:00:32.330Z,20.25
2023-05-17T11:02:32.620Z,20.25
2023-05-17T11:04:32.517Z,20.25
2023-05-17T11:06:32.760Z,20.312
2023-05-17T11:08:32.746Z,20.375
2023-05-17T11:10:32.321Z,20.375
2023-05-17T11:12:38.364Z,20.375
2023-05-17T11:14:32.312Z,20.438
2023-05-17T11:16:32.363Z,20.375
2023-05-17T11:18:41.194Z,20.375
2023-05-17T11:20:34.334Z,20.438
2023-05-17T11:22:32.346Z,20.5
2023-05-17T11:24:32.766Z,20.438
2023-05-17T11:26:32.361Z,20.438
2023-05-17T11:28:32.346Z,20.5
2023-05-17T11:30:32.980Z,20.562
2023-05-17T11:32:32.499Z,20.5
2023-05-17T11:34:32.637Z,20.438
2023-05-17T11:36:32.612Z,20.438
2023-05-17T11:38:32.465Z,20.5
2023-05-17T11:40:32.928Z,20.5
2023-05-17T11:42:32.619Z,20.5
2023-05-17T11:44:32.534Z,20.5
2023-05-17T11:46:32.371Z,20.5
2023-05-17T11:48:33.433Z,20.562
2023-05-17T11:50:32.499Z,20.438
2023-05-17T11:52:32.528Z,20.5
2023-05-17T11:54:32.557Z,20.5
2023-05-17T11:56:44.066Z,20.438
2023-05-17T11:58:32.540Z,20.562
2023-05-17T12:00:32.646Z,20.562
2023-05-17T12:02:32.621Z,20.375
2023-05-17T12:04:33.825Z,20.312
2023-05-17T12:06:32.803Z,20.438
2023-05-17T12:08:32.819Z,20.562
2023-05-17T12:10:35.612Z,20.562
2023-05-17T12:12:32.824Z,20.562
2023-05-17T12:14:32.519Z,20.625
2023-05-17T12:16:32.693Z,20.625
2023-05-17T12:18:33.043Z,20.625
2023-05-17T12:20:33.395Z,20.687
2023-05-17T12:22:32.453Z,20.625
2023-05-17T12:24:32.786Z,20.625
2023-05-17T12:26:32.687Z,20.562
2023-05-17T12:28:32.723Z,20.562
2023-05-17T12:30:32.624Z,20.5
2023-05-17T12:32:36.055Z,20.5
2023-05-17T12:34:32.618Z,20.562
2023-05-17T12:38:33.526Z,20.625
2023-05-17T12:40:32.965Z,20.625
2023-05-17T12:42:32.555Z,20.562
2023-05-17T12:44:33.402Z,20.562
2023-05-17T12:46:32.646Z,20.687
2023-05-17T12:48:33.014Z,20.625
2023-05-17T12:50:32.544Z,20.625
2023-05-17T12:52:32.605Z,20.562
2023-05-17T12:54:32.679Z,20.5
2023-05-17T12:56:32.430Z,20.562
2023-05-17T12:58:32.771Z,20.625
2023-05-17T13:00:33.595Z,20.562
2023-05-17T13:02:32.765Z,20.562
2023-05-17T13:04:34.389Z,20.562
2023-05-17T13:06:33.107Z,20.562
2023-05-17T13:08:32.571Z,20.562
2023-05-17T13:10:33.000Z,20.562
2023-05-17T13:12:32.739Z,20.562
2023-05-17T13:14:32.660Z,20.562
2023-05-17T13:16:32.907Z,20.625
2023-05-17T13:18:33.020Z,20.562
2023-05-17T13:20:32.674Z,20.625
2023-05-17T13:22:33.199Z,20.562
2023-05-17T13:24:32.604Z,20.562
2023-05-17T13:26:32.722Z,20.625
2023-05-17T13:28:33.045Z,20.5
2023-05-17T13:30:32.788Z,20.562
2023-05-17T13:32:33.063Z,20.625
2023-05-17T13:34:32.615Z,20.625
2023-05-17T13:36:32.642Z,20.562
2023-05-17T13:38:32.745Z,20.438
2023-05-17T13:40:32.885Z,20.312
2023-05-17T13:42:32.811Z,20.187
2023-05-17T13:44:32.635Z,20.25
2023-05-17T13:46:32.759Z,20.312
2023-05-17T13:48:33.171Z,20.438
2023-05-17T13:50:32.680Z,20.438
2023-05-17T13:52:32.691Z,20.5
2023-05-17T13:54:32.691Z,20.5
2023-05-17T13:56:33.534Z,20.5
2023-05-17T13:58:33.080Z,20.5
2023-05-17T14:00:32.594Z,20.562
2023-05-17T14:02:32.894Z,20.438
2023-05-17T14:04:35.457Z,20.375
2023-05-17T14:06:32.812Z,20.375
2023-05-17T14:08:32.741Z,20.375
2023-05-17T14:10:32.742Z,20.375
2023-05-17T14:12:32.846Z,20.438
2023-05-17T14:14:32.938Z,20.438
2023-05-17T14:16:32.698Z,20.5
2023-05-17T14:18:33.526Z,20.5
2023-05-17T14:20:32.703Z,20.5
2023-05-17T14:22:32.757Z,20.5
2023-05-17T14:24:36.603Z,20.312
2023-05-17T14:26:32.676Z,20.312
2023-05-17T14:28:32.611Z,20.375
2023-05-17T14:30:33.243Z,20.438
2023-05-17T14:32:32.888Z,20.438
2023-05-17T14:34:32.674Z,20.438
2023-05-17T14:36:33.317Z,20.25
2023-05-17T14:38:33.277Z,20.125
2023-05-17T14:40:32.689Z,20
2023-05-17T14:42:33.039Z,19.75
2023-05-17T14:44:32.680Z,19.687
2023-05-17T14:46:32.687Z,19.562
2023-05-17T14:48:32.935Z,19.5
2023-05-17T14:50:32.719Z,19.687
2023-05-17T14:52:32.940Z,20
2023-05-17T14:54:32.773Z,20.125
2023-05-17T14:56:32.673Z,20.187
2023-05-17T15:00:35.785Z,20.25
2023-05-17T15:02:33.568Z,20.125
2023-05-17T15:04:33.137Z,19.937
2023-05-17T15:06:32.799Z,19.937
2023-05-17T15:08:33.025Z,20
2023-05-17T15:10:32.604Z,20
2023-05-17T15:14:32.935Z,19.75
2023-05-17T15:16:32.837Z,19.75
2023-05-17T15:18:33.095Z,19.625
2023-05-17T15:20:33.225Z,19.687
2023-05-17T15:22:32.631Z,19.812
2023-05-17T15:24:32.816Z,19.937
2023-05-17T15:26:32.653Z,20
2023-05-17T15:28:32.831Z,19.812
2023-05-17T15:30:32.742Z,19.812
2023-05-17T15:32:33.045Z,19.875
2023-05-17T15:34:32.617Z,19.875
2023-05-17T15:36:32.848Z,19.875
2023-05-17T15:38:32.710Z,19.687
2023-05-17T15:40:32.861Z,19.562
2023-05-17T15:42:32.655Z,19.5
2023-05-17T15:44:32.712Z,19.437
2023-05-17T15:46:32.889Z,19.25
2023-05-17T15:48:32.932Z,19.187
2023-05-17T15:50:32.765Z,19
2023-05-17T15:52:32.671Z,18.937
2023-05-17T15:54:32.652Z,18.875
2023-05-17T15:56:32.887Z,18.812
2023-05-17T15:58:32.650Z,18.687
2023-05-17T16:00:32.641Z,18.625
2023-05-17T16:02:32.936Z,18.5
2023-05-17T16:04:33.188Z,18.437
2023-05-17T16:06:33.016Z,18.375
2023-05-17T16:08:32.802Z,18.375
2023-05-17T16:10:32.694Z,18.25
2023-05-17T16:12:32.871Z,18.187
2023-05-17T16:14:32.779Z,18.187
2023-05-17T16:16:32.736Z,18.125
2023-05-17T16:18:33.265Z,18.125
2023-05-17T16:20:32.722Z,18.062
2023-05-17T16:22:32.651Z,17.937
2023-05-17T16:24:32.860Z,17.937
2023-05-17T16:26:32.653Z,17.875
2023-05-17T16:28:32.875Z,17.812
2023-05-17T16:30:32.719Z,17.75
2023-05-17T16:32:32.961Z,17.687
2023-05-17T16:34:32.689Z,17.625
2023-05-17T16:36:32.679Z,17.562
2023-05-17T16:38:32.790Z,17.5
2023-05-17T16:40:32.676Z,17.5
2023-05-17T16:42:32.786Z,17.437
2023-05-17T16:44:33.107Z,17.375
2023-05-17T16:46:32.889Z,17.312
2023-05-17T16:48:32.721Z,17.25
2023-05-17T16:50:32.872Z,17.187
2023-05-17T16:52:32.779Z,17.187
2023-05-17T16:54:32.761Z,17.125
2023-05-17T16:56:32.808Z,17.125
2023-05-17T16:58:32.731Z,17.062
2023-05-17T17:00:32.831Z,17.062
2023-05-17T17:02:32.919Z,17
2023-05-17T17:04:32.748Z,16.937
2023-05-17T17:06:32.725Z,16.937
2023-05-17T17:08:32.729Z,16.937
2023-05-17T17:10:32.938Z,16.875
2023-05-17T17:12:32.742Z,16.875
2023-05-17T17:16:33.209Z,16.812
2023-05-17T17:18:33.020Z,16.75
2023-05-17T17:20:32.752Z,16.75
2023-05-17T17:22:32.761Z,16.687
2023-05-17T17:24:32.795Z,16.687
2023-05-17T17:26:32.736Z,16.625
2023-05-17T17:28:32.969Z,16.562
2023-05-17T17:30:33.109Z,16.625
2023-05-17T17:32:33.412Z,16.562
2023-05-17T17:34:32.775Z,16.5
2023-05-17T17:36:32.910Z,16.437
2023-05-17T17:38:32.798Z,16.375
2023-05-17T17:40:33.541Z,16.437
2023-05-17T17:42:32.740Z,16.375
2023-05-17T17:44:32.761Z,16.375
2023-05-17T17:46:33.405Z,16.312
2023-05-17T17:48:33.057Z,16.25
2023-05-17T17:50:33.029Z,16.25
2023-05-17T17:52:32.835Z,16.25
2023-05-17T17:54:32.879Z,16.187
2023-05-17T17:56:33.041Z,16.125
2023-05-17T17:58:32.765Z,16.125
2023-05-17T18:00:32.907Z,16.062
2023-05-17T18:02:33.019Z,16.062
2023-05-17T18:04:33.329Z,16.062
2023-05-17T18:06:32.808Z,16
2023-05-17T18:08:32.786Z,16
2023-05-17T18:10:32.776Z,15.938
2023-05-17T18:12:32.868Z,15.938
2023-05-17T18:14:32.784Z,15.875
2023-05-17T18:16:33.294Z,15.875
2023-05-17T18:18:32.831Z,15.813
2023-05-17T18:20:33.036Z,15.813
2023-05-17T18:22:32.818Z,15.813
2023-05-17T18:24:32.794Z,15.813
2023-05-17T18:26:32.890Z,15.875
2023-05-17T18:28:43.399Z,15.875
2023-05-17T18:30:32.869Z,15.813
2023-05-17T18:32:33.402Z,15.813
2023-05-17T18:34:32.801Z,15.813
2023-05-17T18:36:33.042Z,15.75
2023-05-17T18:38:32.854Z,15.813
2023-05-17T18:40:32.861Z,15.75
2023-05-17T18:42:32.846Z,15.687
2023-05-17T18:44:32.827Z,15.687
2023-05-17T18:46:32.950Z,15.625
2023-05-17T18:48:32.858Z,15.563
2023-05-17T18:50:32.838Z,15.5
2023-05-17T18:52:33.007Z,15.438
2023-05-17T18:54:32.824Z,15.5
2023-05-17T18:56:32.854Z,15.5
2023-05-17T18:58:32.841Z,15.563
2023-05-17T19:00:33.178Z,15.625
2023-05-17T19:02:32.913Z,15.75
2023-05-17T19:04:33.226Z,15.813
2023-05-17T19:06:32.873Z,15.875
2023-05-17T19:08:32.918Z,15.938
2023-05-17T19:10:33.371Z,15.938
2023-05-17T19:12:32.874Z,16
2023-05-17T19:14:32.861Z,16.062
2023-05-17T19:16:32.837Z,16.062
2023-05-17T19:18:33.449Z,16.062
2023-05-17T19:20:33.685Z,16.062
2023-05-17T19:22:32.882Z,16
2023-05-17T19:24:33.182Z,16.062
2023-05-17T19:26:32.918Z,16.062
2023-05-17T19:28:32.850Z,16
2023-05-17T19:30:34.137Z,15.938
2023-05-17T19:32:33.483Z,15.938
2023-05-17T19:34:32.896Z,15.938
2023-05-17T19:36:32.898Z,15.875
2023-05-17T19:38:32.904Z,15.875
2023-05-17T19:40:32.969Z,15.813
2023-05-17T19:42:32.852Z,15.75
2023-05-17T19:44:32.902Z,15.75
2023-05-17T19:46:33.129Z,15.687
2023-05-17T19:48:32.880Z,15.625
2023-05-17T19:50:33.097Z,15.625
2023-05-17T19:52:32.906Z,15.563
2023-05-17T19:54:32.904Z,15.625
2023-05-17T19:56:33.107Z,15.563
2023-05-17T19:58:32.936Z,15.5
2023-05-17T20:00:32.943Z,15.5
2023-05-17T20:02:33.255Z,15.5
2023-05-17T20:04:32.917Z,15.438
2023-05-17T20:06:32.889Z,15.438
2023-05-17T20:08:32.936Z,15.438
2023-05-17T20:10:33.214Z,15.313
2023-05-17T20:12:33.139Z,15.313
2023-05-17T20:14:32.901Z,15.313
2023-05-17T20:16:33.187Z,15.25
2023-05-17T20:18:32.925Z,15.188
2023-05-17T20:20:33.074Z,15.188
2023-05-17T20:22:32.963Z,15.125
2023-05-17T20:24:32.946Z,15.188
2023-05-17T20:26:32.948Z,15.125
2023-05-17T20:28:33.114Z,15.062
2023-05-17T20:30:32.922Z,15.125
2023-05-17T20:32:33.153Z,15
2023-05-17T20:34:32.919Z,15
2023-05-17T20:36:33.096Z,14.938
2023-05-17T20:38:32.955Z,14.938
2023-05-17T20:40:33.731Z,14.875
2023-05-17T20:42:32.952Z,14.875
2023-05-17T20:44:33.096Z,14.813
2023-05-17T20:46:33.719Z,14.813
2023-05-17T20:48:33.141Z,14.75
2023-05-17T20:50:32.990Z,14.75
2023-05-17T20:52:40.334Z,14.813
2023-05-17T20:54:32.999Z,14.688
2023-05-17T20:56:32.929Z,14.625
2023-05-17T20:58:32.968Z,14.625
2023-05-17T21:00:33.164Z,14.625
2023-05-17T21:02:33.426Z,14.563
2023-05-17T21:04:32.997Z,14.563
2023-05-17T21:06:33.515Z,14.5
2023-05-17T21:08:33.179Z,14.437
2023-05-17T21:10:32.949Z,14.5
2023-05-17T21:12:32.978Z,14.375
2023-05-17T21:14:32.965Z,14.375
2023-05-17T21:16:33.665Z,14.375
2023-05-17T21:18:33.023Z,14.313
2023-05-17T21:20:32.973Z,14.313
2023-05-17T21:22:33.170Z,14.313
2023-05-17T21:24:32.985Z,14.25
2023-05-17T21:26:33.017Z,14.25
2023-05-17T21:28:32.974Z,14.188
2023-05-17T21:30:33.531Z,14.188
2023-05-17T21:32:33.547Z,14.188
2023-05-17T21:34:32.996Z,14.125
2023-05-17T21:36:33.009Z,14.125
2023-05-17T21:38:33.024Z,14.063
2023-05-17T21:40:33.917Z,14
2023-05-17T21:42:32.997Z,14
2023-05-17T21:44:33.422Z,13.938
2023-05-17T21:46:33.073Z,13.938
2023-05-17T21:48:33.177Z,13.938
2023-05-17T21:50:33.194Z,13.938
2023-05-17T21:52:33.036Z,13.875
2023-05-17T21:54:32.989Z,13.812
2023-05-17T21:56:33.013Z,13.812
2023-05-17T21:58:33.000Z,13.812
2023-05-17T22:00:33.293Z,13.75
2023-05-17T22:02:33.410Z,13.75
2023-05-17T22:04:33.337Z,13.688
2023-05-17T22:06:33.028Z,13.625
2023-05-17T22:08:32.979Z,13.625
2023-05-17T22:10:33.012Z,13.625
2023-05-17T22:12:32.987Z,13.625
2023-05-17T22:14:33.181Z,13.5
2023-05-17T22:16:33.793Z,13.5
2023-05-17T22:18:33.226Z,13.5
2023-05-17T22:20:33.712Z,13.438
2023-05-17T22:22:33.184Z,13.438
2023-05-17T22:24:33.089Z,13.438
2023-05-17T22:26:33.008Z,13.438
2023-05-17T22:28:33.017Z,13.375
2023-05-17T22:30:34.573Z,13.375
2023-05-17T22:32:33.257Z,13.375
2023-05-17T22:34:33.038Z,13.313
2023-05-17T22:36:33.375Z,13.313
2023-05-17T22:38:33.061Z,13.25
2023-05-17T22:40:34.060Z,13.25
2023-05-17T22:42:33.486Z,13.25
2023-05-17T22:44:33.059Z,13.125
2023-05-17T22:46:33.130Z,13.187
2023-05-17T22:48:33.048Z,13.187
2023-05-17T22:50:33.066Z,13.125
2023-05-17T22:52:33.317Z,13.125
2023-05-17T22:54:33.080Z,13.063
2023-05-17T22:56:33.070Z,13.125
2023-05-17T22:58:33.042Z,13.063
2023-05-17T23:00:33.068Z,13
2023-05-17T23:02:33.381Z,13
2023-05-17T23:04:33.609Z,13
2023-05-17T23:06:33.064Z,13
2023-05-17T23:08:33.177Z,12.938
2023-05-17T23:10:33.098Z,12.938
2023-05-17T23:12:33.062Z,12.938
2023-05-17T23:14:33.074Z,12.938
2023-05-17T23:16:33.313Z,12.875
2023-05-17T23:18:33.148Z,12.938
2023-05-17T23:20:33.076Z,12.813
2023-05-17T23:22:33.055Z,12.875
2023-05-17T23:24:33.244Z,12.813
2023-05-17T23:26:33.045Z,12.813
2023-05-17T23:28:33.109Z,12.75
2023-05-17T23:30:33.254Z,12.75
2023-05-17T23:32:33.335Z,12.75
2023-05-17T23:34:33.101Z,12.688
2023-05-17T23:36:33.074Z,12.688
2023-05-17T23:38:33.096Z,12.688
2023-05-17T23:40:33.141Z,12.688
2023-05-17T23:42:33.203Z,12.625
2023-05-17T23:44:33.077Z,12.625
2023-05-17T23:46:33.566Z,12.625
2023-05-17T23:48:33.083Z,12.562
2023-05-17T23:50:33.098Z,12.562
2023-05-17T23:52:33.357Z,12.5
2023-05-17T23:54:33.084Z,12.562
2023-05-17T23:56:33.265Z,12.562
2023-05-17T23:58:33.091Z,12.5
